Terminal Aerodrome Forecast
Issued by NWS Central Illinois

Home | Current Version | Previous Version | Text Only | Print | Product List | Glossary On
Versions: 1 2 3 4 5 6 7 8 9 10 11 12 13 14 15 16 17 18 19 20 21 22 23 24 25 26 27 28 29
000
FTUS43 KILX 271700
TAFPIA
TAF
KPIA 271739Z 2718/2818 05007KT P6SM OVC012
     FM280100 10005KT P6SM BKN020
     FM280500 12005KT P6SM FEW020 BKN035
     FM281500 15013KT P6SM SCT200=

USA.gov is the U.S. government's official web portal to all federal, state and local government web resources and services.